sensor_id;sensor_type;location;lat;lon;timestamp;P1;durP1;ratioP1;P2;durP2;ratioP2
20042;SDS011;10182;52.896;6.496;2022-08-19T00:03:42;10.43;;;8.73;;
20042;SDS011;10182;52.896;6.496;2022-08-19T00:08:43;10.60;;;9.13;;
20042;SDS011;10182;52.896;6.496;2022-08-19T00:13:47;12.40;;;9.13;;
20042;SDS011;10182;52.896;6.496;2022-08-19T00:18:50;10.80;;;9.70;;
20042;SDS011;10182;52.896;6.496;2022-08-19T00:23:51;10.03;;;8.63;;
20042;SDS011;10182;52.896;6.496;2022-08-19T00:28:54;10.53;;;9.43;;
20042;SDS011;10182;52.896;6.496;2022-08-19T00:33:56;11.20;;;10.07;;
20042;SDS011;10182;52.896;6.496;2022-08-19T00:38:58;13.30;;;11.13;;
20042;SDS011;10182;52.896;6.496;2022-08-19T00:44:02;9.10;;;8.03;;
20042;SDS011;10182;52.896;6.496;2022-08-19T00:49:08;8.17;;;7.00;;
20042;SDS011;10182;52.896;6.496;2022-08-19T00:54:14;9.47;;;8.57;;
20042;SDS011;10182;52.896;6.496;2022-08-19T00:59:18;10.40;;;8.70;;
20042;SDS011;10182;52.896;6.496;2022-08-19T01:04:21;9.97;;;8.93;;
20042;SDS011;10182;52.896;6.496;2022-08-19T01:09:22;8.43;;;7.43;;
20042;SDS011;10182;52.896;6.496;2022-08-19T01:14:25;11.20;;;9.10;;
20042;SDS011;10182;52.896;6.496;2022-08-19T01:19:29;11.40;;;10.20;;
20042;SDS011;10182;52.896;6.496;2022-08-19T01:24:36;12.53;;;10.83;;
20042;SDS011;10182;52.896;6.496;2022-08-19T01:29:38;12.10;;;10.17;;
20042;SDS011;10182;52.896;6.496;2022-08-19T01:34:42;12.30;;;11.00;;
20042;SDS011;10182;52.896;6.496;2022-08-19T01:39:48;13.63;;;11.97;;
20042;SDS011;10182;52.896;6.496;2022-08-19T01:44:50;14.43;;;12.13;;
20042;SDS011;10182;52.896;6.496;2022-08-19T01:49:51;14.03;;;12.03;;
20042;SDS011;10182;52.896;6.496;2022-08-19T01:54:54;13.33;;;12.10;;
20042;SDS011;10182;52.896;6.496;2022-08-19T01:59:56;13.50;;;10.93;;
20042;SDS011;10182;52.896;6.496;2022-08-19T02:04:59;12.77;;;11.30;;
20042;SDS011;10182;52.896;6.496;2022-08-19T02:10:03;16.13;;;12.83;;
20042;SDS011;10182;52.896;6.496;2022-08-19T02:15:05;13.60;;;12.03;;
20042;SDS011;10182;52.896;6.496;2022-08-19T02:20:08;9.17;;;8.23;;
20042;SDS011;10182;52.896;6.496;2022-08-19T02:25:13;12.00;;;10.70;;
20042;SDS011;10182;52.896;6.496;2022-08-19T02:30:16;11.80;;;10.47;;
20042;SDS011;10182;52.896;6.496;2022-08-19T02:35:19;13.03;;;11.80;;
20042;SDS011;10182;52.896;6.496;2022-08-19T02:40:22;12.67;;;11.37;;
20042;SDS011;10182;52.896;6.496;2022-08-19T02:45:24;14.57;;;11.73;;
20042;SDS011;10182;52.896;6.496;2022-08-19T02:50:25;13.87;;;12.47;;
20042;SDS011;10182;52.896;6.496;2022-08-19T02:55:29;13.77;;;12.47;;
20042;SDS011;10182;52.896;6.496;2022-08-19T03:00:30;15.13;;;13.07;;
20042;SDS011;10182;52.896;6.496;2022-08-19T03:05:32;13.43;;;12.13;;
20042;SDS011;10182;52.896;6.496;2022-08-19T03:10:40;14.20;;;12.73;;
20042;SDS011;10182;52.896;6.496;2022-08-19T03:15:45;14.50;;;12.03;;
20042;SDS011;10182;52.896;6.496;2022-08-19T03:20:48;16.83;;;14.00;;
20042;SDS011;10182;52.896;6.496;2022-08-19T03:25:54;8.67;;;7.47;;
20042;SDS011;10182;52.896;6.496;2022-08-19T03:30:56;15.53;;;12.70;;
20042;SDS011;10182;52.896;6.496;2022-08-19T03:36:03;15.00;;;11.90;;
20042;SDS011;10182;52.896;6.496;2022-08-19T03:41:10;15.43;;;11.93;;
20042;SDS011;10182;52.896;6.496;2022-08-19T03:46:18;13.63;;;12.23;;
20042;SDS011;10182;52.896;6.496;2022-08-19T03:51:23;15.97;;;12.70;;
20042;SDS011;10182;52.896;6.496;2022-08-19T03:56:27;16.20;;;14.07;;
20042;SDS011;10182;52.896;6.496;2022-08-19T04:01:29;17.60;;;14.80;;
20042;SDS011;10182;52.896;6.496;2022-08-19T04:06:34;14.53;;;12.73;;
20042;SDS011;10182;52.896;6.496;2022-08-19T04:11:39;14.97;;;13.30;;
20042;SDS011;10182;52.896;6.496;2022-08-19T04:16:42;16.90;;;14.70;;
20042;SDS011;10182;52.896;6.496;2022-08-19T04:21:45;14.83;;;13.07;;
20042;SDS011;10182;52.896;6.496;2022-08-19T04:26:50;15.60;;;13.83;;
20042;SDS011;10182;52.896;6.496;2022-08-19T04:31:52;15.77;;;13.13;;
20042;SDS011;10182;52.896;6.496;2022-08-19T04:36:56;16.50;;;14.00;;
20042;SDS011;10182;52.896;6.496;2022-08-19T04:42:00;15.20;;;13.60;;
20042;SDS011;10182;52.896;6.496;2022-08-19T04:47:19;12.83;;;11.20;;
20042;SDS011;10182;52.896;6.496;2022-08-19T04:52:21;14.50;;;11.80;;
20042;SDS011;10182;52.896;6.496;2022-08-19T04:57:24;12.83;;;11.47;;
20042;SDS011;10182;52.896;6.496;2022-08-19T05:02:26;18.37;;;14.03;;
20042;SDS011;10182;52.896;6.496;2022-08-19T05:07:29;16.47;;;13.90;;
20042;SDS011;10182;52.896;6.496;2022-08-19T05:12:32;10.20;;;9.10;;
20042;SDS011;10182;52.896;6.496;2022-08-19T05:17:34;10.83;;;9.60;;
20042;SDS011;10182;52.896;6.496;2022-08-19T05:22:36;16.77;;;14.23;;
20042;SDS011;10182;52.896;6.496;2022-08-19T05:27:39;19.67;;;16.23;;
20042;SDS011;10182;52.896;6.496;2022-08-19T05:32:42;20.03;;;15.63;;
20042;SDS011;10182;52.896;6.496;2022-08-19T05:37:43;17.93;;;16.13;;
20042;SDS011;10182;52.896;6.496;2022-08-19T05:42:46;20.23;;;16.50;;
20042;SDS011;10182;52.896;6.496;2022-08-19T05:47:49;27.67;;;19.30;;
20042;SDS011;10182;52.896;6.496;2022-08-19T05:52:51;23.23;;;18.93;;
20042;SDS011;10182;52.896;6.496;2022-08-19T05:57:54;20.50;;;18.17;;
20042;SDS011;10182;52.896;6.496;2022-08-19T06:02:55;22.33;;;19.30;;
20042;SDS011;10182;52.896;6.496;2022-08-19T06:08:03;22.77;;;20.27;;
20042;SDS011;10182;52.896;6.496;2022-08-19T06:13:06;25.17;;;20.47;;
20042;SDS011;10182;52.896;6.496;2022-08-19T06:18:08;26.20;;;20.23;;
20042;SDS011;10182;52.896;6.496;2022-08-19T06:23:10;21.67;;;19.27;;
20042;SDS011;10182;52.896;6.496;2022-08-19T06:28:13;21.23;;;19.03;;
20042;SDS011;10182;52.896;6.496;2022-08-19T06:33:14;20.80;;;18.70;;
20042;SDS011;10182;52.896;6.496;2022-08-19T06:38:16;24.07;;;17.87;;
20042;SDS011;10182;52.896;6.496;2022-08-19T06:43:23;20.83;;;18.70;;
20042;SDS011;10182;52.896;6.496;2022-08-19T06:48:25;19.53;;;17.50;;
20042;SDS011;10182;52.896;6.496;2022-08-19T06:53:26;20.57;;;18.40;;
20042;SDS011;10182;52.896;6.496;2022-08-19T06:58:30;22.60;;;20.07;;
20042;SDS011;10182;52.896;6.496;2022-08-19T07:03:33;19.80;;;17.80;;
20042;SDS011;10182;52.896;6.496;2022-08-19T07:08:37;19.07;;;17.07;;
20042;SDS011;10182;52.896;6.496;2022-08-19T07:13:42;19.23;;;17.33;;
20042;SDS011;10182;52.896;6.496;2022-08-19T07:18:45;17.27;;;15.53;;
20042;SDS011;10182;52.896;6.496;2022-08-19T07:23:47;22.53;;;18.73;;
20042;SDS011;10182;52.896;6.496;2022-08-19T07:28:52;17.30;;;15.50;;
20042;SDS011;10182;52.896;6.496;2022-08-19T07:33:55;20.00;;;16.57;;
20042;SDS011;10182;52.896;6.496;2022-08-19T07:38:58;21.77;;;16.27;;
20042;SDS011;10182;52.896;6.496;2022-08-19T07:44:03;18.03;;;15.70;;
20042;SDS011;10182;52.896;6.496;2022-08-19T07:49:07;16.60;;;15.00;;
20042;SDS011;10182;52.896;6.496;2022-08-19T07:54:18;16.90;;;15.30;;
20042;SDS011;10182;52.896;6.496;2022-08-19T07:59:23;16.23;;;14.60;;
20042;SDS011;10182;52.896;6.496;2022-08-19T08:04:26;14.27;;;12.97;;
20042;SDS011;10182;52.896;6.496;2022-08-19T08:09:45;12.20;;;11.07;;
20042;SDS011;10182;52.896;6.496;2022-08-19T08:14:50;13.60;;;12.40;;
20042;SDS011;10182;52.896;6.496;2022-08-19T08:19:53;12.33;;;11.10;;
20042;SDS011;10182;52.896;6.496;2022-08-19T08:24:55;16.07;;;14.37;;
20042;SDS011;10182;52.896;6.496;2022-08-19T08:29:59;17.77;;;16.03;;
20042;SDS011;10182;52.896;6.496;2022-08-19T08:35:01;18.23;;;16.40;;
20042;SDS011;10182;52.896;6.496;2022-08-19T08:40:03;18.40;;;16.47;;
20042;SDS011;10182;52.896;6.496;2022-08-19T08:45:10;19.93;;;17.93;;
20042;SDS011;10182;52.896;6.496;2022-08-19T08:50:17;21.50;;;19.33;;
20042;SDS011;10182;52.896;6.496;2022-08-19T08:55:22;19.20;;;17.23;;
20042;SDS011;10182;52.896;6.496;2022-08-19T09:00:28;21.00;;;18.93;;
20042;SDS011;10182;52.896;6.496;2022-08-19T09:05:35;17.17;;;15.47;;
20042;SDS011;10182;52.896;6.496;2022-08-19T09:10:49;18.27;;;16.43;;
20042;SDS011;10182;52.896;6.496;2022-08-19T09:15:56;18.60;;;16.70;;
20042;SDS011;10182;52.896;6.496;2022-08-19T09:21:02;17.50;;;15.77;;
20042;SDS011;10182;52.896;6.496;2022-08-19T09:26:06;17.10;;;15.40;;
20042;SDS011;10182;52.896;6.496;2022-08-19T09:31:11;14.87;;;13.47;;
20042;SDS011;10182;52.896;6.496;2022-08-19T09:36:14;15.87;;;14.10;;
20042;SDS011;10182;52.896;6.496;2022-08-19T09:41:18;16.53;;;14.97;;
20042;SDS011;10182;52.896;6.496;2022-08-19T09:46:23;16.30;;;14.70;;
20042;SDS011;10182;52.896;6.496;2022-08-19T09:51:26;15.80;;;14.27;;
20042;SDS011;10182;52.896;6.496;2022-08-19T09:56:29;15.60;;;14.10;;
20042;SDS011;10182;52.896;6.496;2022-08-19T10:01:33;15.10;;;13.70;;
20042;SDS011;10182;52.896;6.496;2022-08-19T10:06:36;15.03;;;13.63;;
20042;SDS011;10182;52.896;6.496;2022-08-19T10:11:39;11.90;;;10.90;;
20042;SDS011;10182;52.896;6.496;2022-08-19T10:16:44;13.10;;;11.90;;
20042;SDS011;10182;52.896;6.496;2022-08-19T10:21:45;13.13;;;11.93;;
20042;SDS011;10182;52.896;6.496;2022-08-19T10:26:47;14.73;;;13.33;;
20042;SDS011;10182;52.896;6.496;2022-08-19T10:31:50;16.23;;;14.53;;
20042;SDS011;10182;52.896;6.496;2022-08-19T10:36:54;12.73;;;11.53;;
20042;SDS011;10182;52.896;6.496;2022-08-19T10:41:56;12.07;;;10.93;;
20042;SDS011;10182;52.896;6.496;2022-08-19T10:46:59;14.17;;;11.50;;
20042;SDS011;10182;52.896;6.496;2022-08-19T10:52:01;13.47;;;12.27;;
20042;SDS011;10182;52.896;6.496;2022-08-19T10:57:21;14.40;;;12.87;;
20042;SDS011;10182;52.896;6.496;2022-08-19T11:02:30;14.10;;;12.73;;
20042;SDS011;10182;52.896;6.496;2022-08-19T11:07:33;13.27;;;9.90;;
20042;SDS011;10182;52.896;6.496;2022-08-19T11:12:38;13.13;;;11.93;;
20042;SDS011;10182;52.896;6.496;2022-08-19T11:17:42;13.70;;;12.40;;
20042;SDS011;10182;52.896;6.496;2022-08-19T11:22:43;16.17;;;14.53;;
20042;SDS011;10182;52.896;6.496;2022-08-19T11:27:45;15.50;;;13.93;;
20042;SDS011;10182;52.896;6.496;2022-08-19T11:32:52;14.57;;;13.03;;
20042;SDS011;10182;52.896;6.496;2022-08-19T11:37:54;13.17;;;11.77;;
20042;SDS011;10182;52.896;6.496;2022-08-19T11:42:56;12.63;;;11.47;;
20042;SDS011;10182;52.896;6.496;2022-08-19T11:47:59;10.80;;;9.70;;
20042;SDS011;10182;52.896;6.496;2022-08-19T11:53:01;8.27;;;6.20;;
20042;SDS011;10182;52.896;6.496;2022-08-19T11:58:03;10.67;;;9.63;;
20042;SDS011;10182;52.896;6.496;2022-08-19T12:03:08;10.70;;;9.67;;
20042;SDS011;10182;52.896;6.496;2022-08-19T12:08:09;10.07;;;8.27;;
20042;SDS011;10182;52.896;6.496;2022-08-19T12:13:13;8.87;;;7.67;;
20042;SDS011;10182;52.896;6.496;2022-08-19T12:18:17;7.03;;;6.40;;
20042;SDS011;10182;52.896;6.496;2022-08-19T12:23:18;5.60;;;5.10;;
20042;SDS011;10182;52.896;6.496;2022-08-19T12:28:21;5.57;;;5.07;;
20042;SDS011;10182;52.896;6.496;2022-08-19T12:33:25;11.30;;;7.63;;
20042;SDS011;10182;52.896;6.496;2022-08-19T12:38:28;9.50;;;8.60;;
20042;SDS011;10182;52.896;6.496;2022-08-19T12:43:30;10.23;;;8.67;;
20042;SDS011;10182;52.896;6.496;2022-08-19T12:48:33;10.43;;;9.43;;
20042;SDS011;10182;52.896;6.496;2022-08-19T12:53:35;10.33;;;9.33;;
20042;SDS011;10182;52.896;6.496;2022-08-19T12:58:37;10.23;;;7.90;;
20042;SDS011;10182;52.896;6.496;2022-08-19T13:03:40;9.03;;;8.13;;
20042;SDS011;10182;52.896;6.496;2022-08-19T13:08:43;12.13;;;10.90;;
20042;SDS011;10182;52.896;6.496;2022-08-19T13:13:48;11.77;;;10.30;;
20042;SDS011;10182;52.896;6.496;2022-08-19T13:18:52;8.90;;;8.00;;
20042;SDS011;10182;52.896;6.496;2022-08-19T13:23:54;10.10;;;8.93;;
20042;SDS011;10182;52.896;6.496;2022-08-19T13:28:56;13.90;;;12.50;;
20042;SDS011;10182;52.896;6.496;2022-08-19T13:34:17;15.37;;;13.10;;
20042;SDS011;10182;52.896;6.496;2022-08-19T13:39:21;17.37;;;14.90;;
20042;SDS011;10182;52.896;6.496;2022-08-19T13:44:23;15.70;;;14.10;;
20042;SDS011;10182;52.896;6.496;2022-08-19T13:49:27;25.20;;;15.37;;
20042;SDS011;10182;52.896;6.496;2022-08-19T13:54:31;17.67;;;15.90;;
20042;SDS011;10182;52.896;6.496;2022-08-19T13:59:33;18.57;;;16.57;;
20042;SDS011;10182;52.896;6.496;2022-08-19T14:04:36;20.07;;;18.00;;
20042;SDS011;10182;52.896;6.496;2022-08-19T14:09:38;21.87;;;19.80;;
20042;SDS011;10182;52.896;6.496;2022-08-19T14:14:40;29.37;;;23.17;;
20042;SDS011;10182;52.896;6.496;2022-08-19T14:19:43;24.57;;;22.00;;
20042;SDS011;10182;52.896;6.496;2022-08-19T14:24:44;27.73;;;24.80;;
20042;SDS011;10182;52.896;6.496;2022-08-19T14:29:47;23.70;;;20.90;;
20042;SDS011;10182;52.896;6.496;2022-08-19T14:34:50;25.73;;;22.00;;
20042;SDS011;10182;52.896;6.496;2022-08-19T14:39:52;23.70;;;21.20;;
20042;SDS011;10182;52.896;6.496;2022-08-19T14:44:56;21.77;;;19.67;;
20042;SDS011;10182;52.896;6.496;2022-08-19T14:50:00;22.33;;;19.97;;
20042;SDS011;10182;52.896;6.496;2022-08-19T14:55:02;20.67;;;17.50;;
20042;SDS011;10182;52.896;6.496;2022-08-19T15:00:06;21.27;;;19.07;;
20042;SDS011;10182;52.896;6.496;2022-08-19T15:05:13;21.77;;;19.47;;
20042;SDS011;10182;52.896;6.496;2022-08-19T15:10:14;21.00;;;16.97;;
20042;SDS011;10182;52.896;6.496;2022-08-19T15:15:17;19.80;;;14.80;;
20042;SDS011;10182;52.896;6.496;2022-08-19T15:20:21;13.97;;;12.27;;
20042;SDS011;10182;52.896;6.496;2022-08-19T15:25:24;12.80;;;11.20;;
20042;SDS011;10182;52.896;6.496;2022-08-19T15:30:27;13.63;;;10.53;;
20042;SDS011;10182;52.896;6.496;2022-08-19T15:35:30;10.97;;;9.80;;
20042;SDS011;10182;52.896;6.496;2022-08-19T15:40:32;10.37;;;9.37;;
20042;SDS011;10182;52.896;6.496;2022-08-19T15:45:34;14.13;;;11.23;;
20042;SDS011;10182;52.896;6.496;2022-08-19T15:50:37;16.57;;;14.60;;
20042;SDS011;10182;52.896;6.496;2022-08-19T15:55:41;16.27;;;13.07;;
20042;SDS011;10182;52.896;6.496;2022-08-19T16:00:45;17.67;;;15.10;;
20042;SDS011;10182;52.896;6.496;2022-08-19T16:06:06;17.77;;;15.87;;
20042;SDS011;10182;52.896;6.496;2022-08-19T16:11:25;18.87;;;16.30;;
20042;SDS011;10182;52.896;6.496;2022-08-19T16:16:30;18.03;;;15.77;;
20042;SDS011;10182;52.896;6.496;2022-08-19T16:21:35;18.10;;;15.80;;
20042;SDS011;10182;52.896;6.496;2022-08-19T16:26:39;19.20;;;16.67;;
20042;SDS011;10182;52.896;6.496;2022-08-19T16:31:43;15.77;;;13.87;;
20042;SDS011;10182;52.896;6.496;2022-08-19T16:36:47;13.90;;;12.07;;
20042;SDS011;10182;52.896;6.496;2022-08-19T16:41:49;16.73;;;10.80;;
20042;SDS011;10182;52.896;6.496;2022-08-19T16:46:51;11.23;;;10.10;;
20042;SDS011;10182;52.896;6.496;2022-08-19T16:51:55;14.63;;;9.30;;
20042;SDS011;10182;52.896;6.496;2022-08-19T16:56:57;12.33;;;9.77;;
20042;SDS011;10182;52.896;6.496;2022-08-19T17:01:58;10.57;;;9.07;;
20042;SDS011;10182;52.896;6.496;2022-08-19T17:07:01;12.97;;;10.67;;
20042;SDS011;10182;52.896;6.496;2022-08-19T17:12:04;11.20;;;9.90;;
20042;SDS011;10182;52.896;6.496;2022-08-19T17:17:06;9.90;;;9.00;;
20042;SDS011;10182;52.896;6.496;2022-08-19T17:22:13;12.43;;;10.97;;
20042;SDS011;10182;52.896;6.496;2022-08-19T17:27:15;13.73;;;11.80;;
20042;SDS011;10182;52.896;6.496;2022-08-19T17:32:18;13.83;;;11.50;;
20042;SDS011;10182;52.896;6.496;2022-08-19T17:37:21;14.63;;;12.90;;
20042;SDS011;10182;52.896;6.496;2022-08-19T17:42:23;14.67;;;12.40;;
20042;SDS011;10182;52.896;6.496;2022-08-19T17:47:25;13.60;;;12.20;;
20042;SDS011;10182;52.896;6.496;2022-08-19T17:52:29;15.20;;;13.60;;
20042;SDS011;10182;52.896;6.496;2022-08-19T17:57:31;15.97;;;10.73;;
20042;SDS011;10182;52.896;6.496;2022-08-19T18:02:32;17.90;;;13.73;;
20042;SDS011;10182;52.896;6.496;2022-08-19T18:07:35;14.23;;;12.83;;
20042;SDS011;10182;52.896;6.496;2022-08-19T18:12:37;15.40;;;13.80;;
20042;SDS011;10182;52.896;6.496;2022-08-19T18:17:39;17.83;;;13.60;;
20042;SDS011;10182;52.896;6.496;2022-08-19T18:22:43;6.20;;;5.10;;
20042;SDS011;10182;52.896;6.496;2022-08-19T18:27:46;2.63;;;1.33;;
20042;SDS011;10182;52.896;6.496;2022-08-19T18:32:48;2.83;;;1.50;;
20042;SDS011;10182;52.896;6.496;2022-08-19T18:37:53;2.07;;;1.87;;
20042;SDS011;10182;52.896;6.496;2022-08-19T18:42:55;4.47;;;2.80;;
20042;SDS011;10182;52.896;6.496;2022-08-19T18:48:16;11.10;;;4.00;;
20042;SDS011;10182;52.896;6.496;2022-08-19T18:53:38;4.20;;;3.03;;
20042;SDS011;10182;52.896;6.496;2022-08-19T18:58:42;4.67;;;3.27;;
20042;SDS011;10182;52.896;6.496;2022-08-19T19:03:45;3.50;;;3.00;;
20042;SDS011;10182;52.896;6.496;2022-08-19T19:08:50;3.33;;;3.03;;
20042;SDS011;10182;52.896;6.496;2022-08-19T19:13:54;3.60;;;3.23;;
20042;SDS011;10182;52.896;6.496;2022-08-19T19:18:56;4.30;;;3.90;;
20042;SDS011;10182;52.896;6.496;2022-08-19T19:23:59;5.27;;;3.40;;
20042;SDS011;10182;52.896;6.496;2022-08-19T19:29:01;6.63;;;4.17;;
20042;SDS011;10182;52.896;6.496;2022-08-19T19:34:02;7.27;;;4.63;;
20042;SDS011;10182;52.896;6.496;2022-08-19T19:39:06;6.00;;;5.00;;
20042;SDS011;10182;52.896;6.496;2022-08-19T19:44:07;8.50;;;4.70;;
20042;SDS011;10182;52.896;6.496;2022-08-19T19:49:10;5.27;;;4.63;;
20042;SDS011;10182;52.896;6.496;2022-08-19T19:54:13;5.60;;;4.73;;
20042;SDS011;10182;52.896;6.496;2022-08-19T19:59:17;7.47;;;5.10;;
20042;SDS011;10182;52.896;6.496;2022-08-19T20:04:19;11.03;;;5.40;;
20042;SDS011;10182;52.896;6.496;2022-08-19T20:09:22;7.07;;;5.77;;
20042;SDS011;10182;52.896;6.496;2022-08-19T20:14:24;8.17;;;5.70;;
20042;SDS011;10182;52.896;6.496;2022-08-19T20:19:27;6.07;;;5.57;;
20042;SDS011;10182;52.896;6.496;2022-08-19T20:24:37;8.13;;;7.43;;
20042;SDS011;10182;52.896;6.496;2022-08-19T20:29:41;10.40;;;9.47;;
20042;SDS011;10182;52.896;6.496;2022-08-19T20:34:43;9.83;;;8.80;;
20042;SDS011;10182;52.896;6.496;2022-08-19T20:39:49;13.13;;;11.90;;
20042;SDS011;10182;52.896;6.496;2022-08-19T20:44:51;11.20;;;10.00;;
20042;SDS011;10182;52.896;6.496;2022-08-19T20:49:52;14.37;;;11.90;;
20042;SDS011;10182;52.896;6.496;2022-08-19T20:54:55;12.00;;;10.70;;
20042;SDS011;10182;52.896;6.496;2022-08-19T20:59:57;12.90;;;11.53;;
20042;SDS011;10182;52.896;6.496;2022-08-19T21:04:59;13.07;;;11.67;;
20042;SDS011;10182;52.896;6.496;2022-08-19T21:10:03;14.27;;;11.63;;
20042;SDS011;10182;52.896;6.496;2022-08-19T21:15:06;14.50;;;12.33;;
20042;SDS011;10182;52.896;6.496;2022-08-19T21:20:08;13.53;;;12.23;;
20042;SDS011;10182;52.896;6.496;2022-08-19T21:25:12;15.53;;;13.10;;
20042;SDS011;10182;52.896;6.496;2022-08-19T21:30:13;14.30;;;11.63;;
20042;SDS011;10182;52.896;6.496;2022-08-19T21:35:15;15.30;;;13.70;;
20042;SDS011;10182;52.896;6.496;2022-08-19T21:40:19;14.27;;;12.87;;
20042;SDS011;10182;52.896;6.496;2022-08-19T21:45:21;14.37;;;12.97;;
20042;SDS011;10182;52.896;6.496;2022-08-19T21:50:23;14.13;;;12.63;;
20042;SDS011;10182;52.896;6.496;2022-08-19T21:55:26;16.27;;;12.90;;
20042;SDS011;10182;52.896;6.496;2022-08-19T22:00:28;14.67;;;13.27;;
20042;SDS011;10182;52.896;6.496;2022-08-19T22:05:30;19.33;;;17.27;;
20042;SDS011;10182;52.896;6.496;2022-08-19T22:10:34;18.70;;;15.93;;
20042;SDS011;10182;52.896;6.496;2022-08-19T22:15:37;20.07;;;17.93;;
20042;SDS011;10182;52.896;6.496;2022-08-19T22:20:38;18.53;;;16.67;;
20042;SDS011;10182;52.896;6.496;2022-08-19T22:25:43;21.33;;;19.13;;
20042;SDS011;10182;52.896;6.496;2022-08-19T22:30:47;20.67;;;16.47;;
20042;SDS011;10182;52.896;6.496;2022-08-19T22:35:50;19.97;;;17.90;;
20042;SDS011;10182;52.896;6.496;2022-08-19T22:40:53;18.63;;;16.77;;
20042;SDS011;10182;52.896;6.496;2022-08-19T22:45:55;16.87;;;14.97;;
20042;SDS011;10182;52.896;6.496;2022-08-19T22:50:58;19.50;;;16.03;;
20042;SDS011;10182;52.896;6.496;2022-08-19T22:56:19;19.20;;;17.20;;
20042;SDS011;10182;52.896;6.496;2022-08-19T23:01:21;20.60;;;17.10;;
20042;SDS011;10182;52.896;6.496;2022-08-19T23:06:24;18.97;;;17.17;;
20042;SDS011;10182;52.896;6.496;2022-08-19T23:11:27;20.10;;;17.00;;
20042;SDS011;10182;52.896;6.496;2022-08-19T23:16:30;17.87;;;15.97;;
20042;SDS011;10182;52.896;6.496;2022-08-19T23:21:33;17.00;;;15.20;;
20042;SDS011;10182;52.896;6.496;2022-08-19T23:26:37;15.60;;;14.00;;
20042;SDS011;10182;52.896;6.496;2022-08-19T23:31:59;14.57;;;13.03;;
20042;SDS011;10182;52.896;6.496;2022-08-19T23:37:01;14.83;;;13.17;;
20042;SDS011;10182;52.896;6.496;2022-08-19T23:42:08;17.17;;;14.13;;
20042;SDS011;10182;52.896;6.496;2022-08-19T23:47:11;15.13;;;13.27;;
20042;SDS011;10182;52.896;6.496;2022-08-19T23:52:13;15.77;;;14.17;;
20042;SDS011;10182;52.896;6.496;2022-08-19T23:57:16;15.50;;;14.10;;
